WetterOnline ( http://www.wetteronline.de )

Wetter aktuell Schongau

Aktuelles Wetter: Hohenpeißenberg (986m)

6-stündlich | Neueste Meldungen
Ortszeit Temperatur Wetter
So, 19.08. 20:00 22.7° C leicht bewölkt
So, 19.08. 14:00 23.6° C leicht bewölkt
So, 19.08. 8:00 16.6° C wolkenlos
So, 19.08. 2:00 17.9° C wolkenlos
Sa, 18.08. 20:00 20.7° C fast wolkenlos
Sa, 18.08. 14:00 20.9° C wolkig
Sa, 18.08. 8:00 15.5° C leicht bewölkt
Sa, 18.08. 2:00 16.5° C wolkig
Ortszeit Temperatur Wetter
So, 19.08. 21:00 22.1° C leicht bewölkt
So, 19.08. 20:50 22.1° C leicht bewölkt
So, 19.08. 20:40 22.1° C fast wolkenlos
So, 19.08. 20:30 22.3° C leicht bewölkt
So, 19.08. 20:20 22.3° C fast wolkenlos
So, 19.08. 20:10 22.3° C wolkenlos
So, 19.08. 20:00 22.7° C leicht bewölkt
So, 19.08. 19:30 23.1° C leicht bewölkt
So, 19.08. 19:00 23.7° C leicht bewölkt
So, 19.08. 18:30 23.9° C wolkig
So, 19.08. 18:00 24.0° C wolkig
Ortszeit Relative Feuchte Sichtweite
So, 19.08. 20:00 48% 25 km
So, 19.08. 14:00 52% 35 km
So, 19.08. 8:00 80% 27 km
So, 19.08. 2:00 70% 26 km
Sa, 18.08. 20:00 57% 30 km
Sa, 18.08. 14:00 70% 30 km
Sa, 18.08. 8:00 85% 15 km
Sa, 18.08. 2:00 72% 50 km
Ortszeit Relative Feuchte Sichtweite
So, 19.08. 21:00 48% 25 km
So, 19.08. 20:50 48% -
So, 19.08. 20:40 49% -
So, 19.08. 20:30 49% 25 km
So, 19.08. 20:20 49% -
So, 19.08. 20:10 49% -
So, 19.08. 20:00 48% 25 km
So, 19.08. 19:30 48% 25 km
So, 19.08. 19:00 45% 25 km
So, 19.08. 18:30 46% 25 km
So, 19.08. 18:00 44% 25 km
Ortszeit Niederschlagsmenge Niederschlagsart
So, 19.08. 20:00 0.0 l/m2 in 12 Std. -
So, 19.08. 14:00 0.0 l/m2 in 6 Std. -
So, 19.08. 8:00 0.0 l/m2 in 12 Std. -
So, 19.08. 2:00 0.0 l/m2 in 6 Std. -
Sa, 18.08. 20:00 0.0 l/m2 in 12 Std. -
Sa, 18.08. 14:00 0.0 l/m2 in 6 Std. -
Sa, 18.08. 8:00 0.0 l/m2 in 12 Std. -
Sa, 18.08. 2:00 0.0 l/m2 in 6 Std. -
Ortszeit Niederschlagsmenge Niederschlagsart
So, 19.08. 21:00 0.0 l/m2 in 1 Std. -
So, 19.08. 20:50 keine Meldung -
So, 19.08. 20:40 keine Meldung -
So, 19.08. 20:30 0.0 l/m2 in 1 Std. -
So, 19.08. 20:20 keine Meldung -
So, 19.08. 20:10 keine Meldung -
So, 19.08. 20:00 0.0 l/m2 in 1 Std. -
So, 19.08. 19:30 0.0 l/m2 in 1 Std. -
So, 19.08. 19:00 0.0 l/m2 in 1 Std. -
So, 19.08. 18:30 0.0 l/m2 in 1 Std. -
So, 19.08. 18:00 0.0 l/m2 in 1 Std. -
Ortszeit Stärke Spitze Richtung
km/h Bft. km/h Grad Sektor
So, 19.08. 20:00 7 2 28 20° N
So, 19.08. 14:00 9 2 24 30° NO
So, 19.08. 8:00 7 2 18 180° S
So, 19.08. 2:00 13 3 19 10° N
Sa, 18.08. 20:00 7 2 24 30° NO
Sa, 18.08. 14:00 14 3 25 10° N
Sa, 18.08. 8:00 7 2 32 280° W
Sa, 18.08. 2:00 20 4 31 250° W
Ortszeit Stärke Spitze Richtung
km/h Bft. km/h Grad Sektor
So, 19.08. 21:00 11 2 14 20° N
So, 19.08. 20:50 11 2 - 20° N
So, 19.08. 20:40 11 2 - 20° N
So, 19.08. 20:30 9 2 13 20° N
So, 19.08. 20:20 9 2 - 20° N
So, 19.08. 20:10 9 2 - 20° N
So, 19.08. 20:00 7 2 13 20° N
So, 19.08. 19:30 9 2 13 20° N
So, 19.08. 19:00 7 2 14 50° NO
So, 19.08. 18:30 9 2 13 10° N
So, 19.08. 18:00 9 2 17 30° NO
Ortszeit Untergrenze Bedeckung Gattung
total tief tief mittel hoch
So, 19.08. 20:00 - 2/8 2/8 Cb - Ci
So, 19.08. 14:00 1200 m 2/8 2/8 Cu - Ci
So, 19.08. 8:00 - 0/8 0/8 - - -
So, 19.08. 2:00 1800 m 0/8 0/8 - - -
Sa, 18.08. 20:00 1500 m 1/8 1/8 Cu - -
Sa, 18.08. 14:00 510 m 6/8 4/8 Cu Ac -
Sa, 18.08. 8:00 3300 m 7/8 7/8 - Ac -
Sa, 18.08. 2:00 1800 m 8/8 2/8 - - -
Ortszeit Bedeckungsgrad in Achtel und Wolkenuntergrenze
So, 19.08. 21:00 1(1380m)
So, 19.08. 20:50 3(10500m)
So, 19.08. 20:40 1(10500m)
So, 19.08. 20:30 1(10500m)
So, 19.08. 20:20 1(10500m)
So, 19.08. 20:10 keine Wolken
So, 19.08. 20:00 2
So, 19.08. 19:30 2
So, 19.08. 19:00 2(1800m) 3(7500m)
So, 19.08. 18:30 3(1800m) 3(7500m)
So, 19.08. 18:00 3(1500m) 3(7500m)
Ortszeit Stationsdruck (hPa) Tendenz (hPa in 3 Std.)
So, 19.08. 20:00 909 - 0,2
So, 19.08. 14:00 910 - 0,8
So, 19.08. 8:00 911 + 0,1
So, 19.08. 2:00 911 0,0
Sa, 18.08. 20:00 910 + 0,4
Sa, 18.08. 14:00 910 0,0
Sa, 18.08. 8:00 910 + 0,5
Sa, 18.08. 2:00 909 + 0,9
Ortszeit Stationsdruck (hPa) Tendenz (hPa in 3 Std.)
So, 19.08. 21:00 909 + 0,3
So, 19.08. 20:50 909 keine Meldung
So, 19.08. 20:40 909 keine Meldung
So, 19.08. 20:30 909 0,0
So, 19.08. 20:20 909 keine Meldung
So, 19.08. 20:10 909 keine Meldung
So, 19.08. 20:00 909 - 0,2
So, 19.08. 19:30 909 - 0,4
So, 19.08. 19:00 909 - 0,5
So, 19.08. 18:30 909 - 0,6
So, 19.08. 18:00 909 - 0,7
Ortszeit Schneehöhe (cm)
So, 19.08. 20:00 0
So, 19.08. 14:00 0
So, 19.08. 8:00 0
So, 19.08. 2:00 -
Sa, 18.08. 20:00 0
Sa, 18.08. 14:00 0
Sa, 18.08. 8:00 0
Sa, 18.08. 2:00 -
Ortszeit Schneehöhe (cm)
So, 19.08. 21:00 -
So, 19.08. 20:50 -
So, 19.08. 20:40 -
So, 19.08. 20:30 -
So, 19.08. 20:20 -
So, 19.08. 20:10 -
So, 19.08. 20:00 0
So, 19.08. 19:30 -
So, 19.08. 19:00 -
So, 19.08. 18:30 -
So, 19.08. 18:00 -
Link zu dieser Seite / Seite empfehlen

Das Wetter in ...